Time;durP1;ratioP1;P1;durP2;ratioP2;P2;SDS_P1;SDS_P2;PMS_P1;PMS_P2;Temp;Humidity;BMP_temperature;BMP_pressure;BME280_temperature;BME280_humidity;BME280_pressure;Samples;Min_cycle;Max_cycle;Signal;HPM_P1;HPM_P2
2021/07/01 00:01:05;;;;;;;;;;;;;;;;;;5023850;28;20020;-81
2021/07/01 00:03:33;;;;;;;;;;;;;;;;;;5031396;28;19927;-82
2021/07/01 00:06:00;;;;;;;;;;;;;;;;;;5045574;28;19966;-82
2021/07/01 00:08:27;;;;;;;;;;;;;;;;;;5025950;28;20016;-81
2021/07/01 00:10:54;;;;;;;;;;;;;;;;;;5027413;28;19968;-82
2021/07/01 00:13:23;;;;;;;;;;;;;;;;;;5016592;28;19992;-82
2021/07/01 00:15:51;;;;;;;;;;;;;;;;;;5051718;28;19927;-82
2021/07/01 00:18:18;;;;;;;;;;;;;;;;;;5041942;28;20016;-81
2021/07/01 00:20:48;;;;;;;;;;;;;;;;;;5016412;28;19952;-81
2021/07/01 00:23:16;;;;;;;;;;;;;;;;;;5032434;28;19984;-81
2021/07/01 00:25:45;;;;;;;;;;;;;;;;;;5014691;28;19944;-81
2021/07/01 00:28:12;;;;;;;;;;;;;;;;;;5045801;28;19982;-81
2021/07/01 00:30:39;;;;;;;;;;;;;;;;;;5033875;28;19951;-81
2021/07/01 00:33:06;;;;;;;;;;;;;;;;;;5034657;28;19957;-81
2021/07/01 00:35:33;;;;;;;;;;;;;;;;;;5044925;28;20310;-81
2021/07/01 00:38:00;;;;;;;;;;;;;;;;;;5050321;28;19967;-81
2021/07/01 00:40:27;;;;;;;;;;;;;;;;;;5052190;28;19948;-81
2021/07/01 00:42:55;;;;;;;;;;;;;;;;;;5033009;28;19964;-81
2021/07/01 00:45:22;;;;;;;;;;;;;;;;;;5023223;28;20016;-81
2021/07/01 00:47:51;;;;;;;;;;;;;;;;;;5034713;28;19928;-81
2021/07/01 00:50:20;;;;;;;;;;;;;;;;;;5031287;28;19925;-81
2021/07/01 00:52:48;;;;;;;;;;;;;;;;;;5045629;28;20323;-82
2021/07/01 00:55:15;;;;;;;;;;;;;;;;;;5050729;28;19987;-82
2021/07/01 00:57:42;;;;;;;;;;;;;;;;;;5017283;28;20020;-82
2021/07/01 01:00:25;;;;;;;;;;;;;;;;;;5050383;28;19976;-82
2021/07/01 01:02:52;;;;;;;;;;;;;;;;;;5033397;28;20098;-81
2021/07/01 01:05:19;;;;;;;;;;;;;;;;;;5033730;28;19976;-81
2021/07/01 01:07:47;;;;;;;;;;;;;;;;;;5033644;28;19975;-81
2021/07/01 01:10:14;;;;;;;;;;;;;;;;;;5034855;28;20007;-81
2021/07/01 01:12:41;;;;;;;;;;;;;;;;;;5022792;28;20015;-81
2021/07/01 01:15:08;;;;;;;;;;;;;;;;;;5013235;28;19929;-82
2021/07/01 01:17:35;;;;;;;;;;;;;;;;;;5031426;28;19998;-82
2021/07/01 01:20:04;;;;;;;;;;;;;;;;;;5031009;28;19964;-82
2021/07/01 01:22:38;;;;;;;;;;;;;;;;;;5030528;28;20016;-82
2021/07/01 01:25:05;;;;;;;;;;;;;;;;;;5031343;28;20023;-82
2021/07/01 01:27:32;;;;;;;;;;;;;;;;;;5033102;28;20532;-82
2021/07/01 01:30:00;;;;;;;;;;;;;;;;;;5032885;28;20285;-82
2021/07/01 01:32:27;;;;;;;;;;;;;;;;;;5032246;28;20321;-82
2021/07/01 01:34:54;;;;;;;;;;;;;;;;;;5033120;28;20015;-82
2021/07/01 01:37:21;;;;;;;;;;;;;;;;;;5050442;28;20004;-82
2021/07/01 01:39:48;;;;;;;;;;;;;;;;;;5034776;28;19952;-81
2021/07/01 01:42:16;;;;;;;;;;;;;;;;;;5026158;28;19925;-82
2021/07/01 01:44:43;;;;;;;;;;;;;;;;;;5033616;28;20401;-82
2021/07/01 01:47:11;;;;;;;;;;;;;;;;;;5030107;28;19925;-82
2021/07/01 01:49:38;;;;;;;;;;;;;;;;;;5014082;28;19931;-82
2021/07/01 01:52:06;;;;;;;;;;;;;;;;;;5014263;28;19925;-82
2021/07/01 01:54:34;;;;;;;;;;;;;;;;;;5014666;28;19921;-82
2021/07/01 01:57:01;;;;;;;;;;;;;;;;;;5011714;28;19941;-82
2021/07/01 01:59:31;;;;;;;;;;;;;;;;;;5030946;28;19975;-83
2021/07/01 02:01:58;;;;;;;;;;;;;;;;;;5017998;28;19921;-82
2021/07/01 02:04:26;;;;;;;;;;;;;;;;;;5056597;28;19932;-82
2021/07/01 02:06:55;;;;;;;;;;;;;;;;;;5027868;28;19928;-82
2021/07/01 02:09:22;;;;;;;;;;;;;;;;;;5051005;28;20011;-82
2021/07/01 02:11:49;;;;;;;;;;;;;;;;;;5034397;28;19921;-82
2021/07/01 02:14:16;;;;;;;;;;;;;;;;;;5018034;28;20024;-81
2021/07/01 02:16:43;;;;;;;;;;;;;;;;;;5033536;28;19987;-82
2021/07/01 02:19:12;;;;;;;;;;;;;;;;;;5017095;28;20382;-82
2021/07/01 02:21:41;;;;;;;;;;;;;;;;;;5017448;28;19928;-82
2021/07/01 02:24:10;;;;;;;;;;;;;;;;;;5017511;28;19925;-82
2021/07/01 02:26:38;;;;;;;;;;;;;;;;;;5017000;28;19921;-82
2021/07/01 02:29:07;;;;;;;;;;;;;;;;;;5035202;28;19927;-81
2021/07/01 02:31:34;;;;;;;;;;;;;;;;;;5036693;28;20612;-82
2021/07/01 02:34:01;;;;;;;;;;;;;;;;;;5051158;28;19925;-81
2021/07/01 02:36:28;;;;;;;;;;;;;;;;;;5017930;28;20015;-81
2021/07/01 02:38:55;;;;;;;;;;;;;;;;;;5027624;28;20043;-82
2021/07/01 02:41:22;;;;;;;;;;;;;;;;;;5035436;28;19962;-81
2021/07/01 02:43:49;;;;;;;;;;;;;;;;;;5053628;28;20360;-82
2021/07/01 02:46:17;;;;;;;;;;;;;;;;;;5053327;28;19931;-82
2021/07/01 02:48:44;;;;;;;;;;;;;;;;;;5035481;28;19921;-81
2021/07/01 02:51:12;;;;;;;;;;;;;;;;;;5035402;28;19929;-82
2021/07/01 02:53:39;;;;;;;;;;;;;;;;;;5033228;28;19959;-83
2021/07/01 02:56:08;;;;;;;;;;;;;;;;;;5035766;28;20330;-83
2021/07/01 02:58:36;;;;;;;;;;;;;;;;;;5053727;28;19963;-83
2021/07/01 03:01:04;;;;;;;;;;;;;;;;;;5054024;28;19921;-82
2021/07/01 03:03:31;;;;;;;;;;;;;;;;;;5036576;28;20015;-82
2021/07/01 03:05:58;;;;;;;;;;;;;;;;;;5022085;28;19972;-83
2021/07/01 03:08:26;;;;;;;;;;;;;;;;;;5030567;28;19926;-82
2021/07/01 03:10:53;;;;;;;;;;;;;;;;;;5033074;28;19920;-82
2021/07/01 03:13:20;;;;;;;;;;;;;;;;;;5033171;28;20019;-83
2021/07/01 03:15:48;;;;;;;;;;;;;;;;;;5018096;28;19951;-83
2021/07/01 03:18:15;;;;;;;;;;;;;;;;;;5033681;28;20381;-82
2021/07/01 03:20:43;;;;;;;;;;;;;;;;;;5036342;28;19932;-82
2021/07/01 03:23:10;;;;;;;;;;;;;;;;;;5040700;28;20687;-83
2021/07/01 03:25:37;;;;;;;;;;;;;;;;;;5017507;28;19969;-82
2021/07/01 03:28:04;;;;;;;;;;;;;;;;;;5034441;28;19928;-82
2021/07/01 03:30:32;;;;;;;;;;;;;;;;;;5021133;28;19972;-82
2021/07/01 03:32:59;;;;;;;;;;;;;;;;;;5021870;28;19984;-82
2021/07/01 03:35:27;;;;;;;;;;;;;;;;;;5045423;28;19924;-82
2021/07/01 03:37:56;;;;;;;;;;;;;;;;;;5024466;28;20318;-82
2021/07/01 03:40:23;;;;;;;;;;;;;;;;;;5024216;28;19984;-82
2021/07/01 03:42:50;;;;;;;;;;;;;;;;;;5035730;28;20731;-82
2021/07/01 03:45:17;;;;;;;;;;;;;;;;;;5020647;28;19922;-82
2021/07/01 03:47:45;;;;;;;;;;;;;;;;;;5031626;28;19921;-82
2021/07/01 03:50:13;;;;;;;;;;;;;;;;;;5034454;28;20536;-82
2021/07/01 03:52:40;;;;;;;;;;;;;;;;;;5028216;28;19921;-82
2021/07/01 03:55:09;;;;;;;;;;;;;;;;;;5029985;28;20004;-82
2021/07/01 03:57:39;;;;;;;;;;;;;;;;;;5012405;28;19929;-82
2021/07/01 04:00:09;;;;;;;;;;;;;;;;;;5034566;28;20084;-82
2021/07/01 04:02:37;;;;;;;;;;;;;;;;;;5027402;28;19961;-82
2021/07/01 04:05:04;;;;;;;;;;;;;;;;;;5036289;28;20645;-82
2021/07/01 04:07:32;;;;;;;;;;;;;;;;;;5014099;28;19960;-81
2021/07/01 04:10:05;;;;;;;;;;;;;;;;;;5015462;28;20501;-81
2021/07/01 04:12:32;;;;;;;;;;;;;;;;;;5023784;28;20020;-82
2021/07/01 04:15:00;;;;;;;;;;;;;;;;;;5031662;28;20587;-82
2021/07/01 04:17:27;;;;;;;;;;;;;;;;;;5000745;28;20389;-82
2021/07/01 04:19:55;;;;;;;;;;;;;;;;;;5028534;28;19921;-82
2021/07/01 04:22:22;;;;;;;;;;;;;;;;;;5031383;28;19921;-81
2021/07/01 04:24:49;;;;;;;;;;;;;;;;;;5015091;28;20708;-82
2021/07/01 04:27:16;;;;;;;;;;;;;;;;;;5034543;28;19925;-82
2021/07/01 04:29:43;;;;;;;;;;;;;;;;;;5017332;28;19960;-82
2021/07/01 04:32:14;;;;;;;;;;;;;;;;;;5020482;28;20003;-81
2021/07/01 04:34:41;;;;;;;;;;;;;;;;;;5012955;28;19975;-82
2021/07/01 04:37:08;;;;;;;;;;;;;;;;;;5021372;28;19921;-81
2021/07/01 04:39:35;;;;;;;;;;;;;;;;;;5032388;28;20293;-82
2021/07/01 04:42:02;;;;;;;;;;;;;;;;;;5029431;28;20016;-81
2021/07/01 04:44:35;;;;;;;;;;;;;;;;;;5011171;28;19925;-80
2021/07/01 04:47:02;;;;;;;;;;;;;;;;;;5028939;28;20335;-81
2021/07/01 04:49:29;;;;;;;;;;;;;;;;;;5010836;28;20398;-80
2021/07/01 04:51:56;;;;;;;;;;;;;;;;;;5025099;28;20008;-81
2021/07/01 04:54:23;;;;;;;;;;;;;;;;;;5028845;28;19957;-82
2021/07/01 04:56:50;;;;;;;;;;;;;;;;;;5027214;28;20000;-78
2021/07/01 04:59:17;;;;;;;;;;;;;;;;;;5027852;28;19928;-78
2021/07/01 05:01:44;;;;;;;;;;;;;;;;;;5034846;28;19931;-79
2021/07/01 05:04:11;;;;;;;;;;;;;;;;;;5022480;28;19931;-78
2021/07/01 05:06:39;;;;;;;;;;;;;;;;;;5009673;28;20026;-77
2021/07/01 05:09:06;;;;;;;;;;;;;;;;;;5025015;28;20425;-78
2021/07/01 05:11:33;;;;;;;;;;;;;;;;;;5025457;28;20043;-77
2021/07/01 05:14:00;;;;;;;;;;;;;;;;;;5007433;28;19931;-78
2021/07/01 05:16:28;;;;;;;;;;;;;;;;;;5024641;28;20019;-78
2021/07/01 05:18:55;;;;;;;;;;;;;;;;;;5026145;28;20016;-79
2021/07/01 05:21:22;;;;;;;;;;;;;;;;;;5026904;28;19921;-81
2021/07/01 05:23:50;;;;;;;;;;;;;;;;;;5028531;28;19925;-79
2021/07/01 05:26:17;;;;;;;;;;;;;;;;;;5022870;28;20011;-79
2021/07/01 05:28:44;;;;;;;;;;;;;;;;;;5025267;28;19963;-79
2021/07/01 05:31:31;;;;;;;;;;;;;;;;;;5011294;28;20269;-82
2021/07/01 05:33:58;;;;;;;;;;;;;;;;;;5012579;28;19960;-80
2021/07/01 05:36:25;;;;;;;;;;;;;;;;;;5028084;28;19957;-81
2021/07/01 05:38:52;;;;;;;;;;;;;;;;;;5033322;28;20004;-81
2021/07/01 05:41:19;;;;;;;;;;;;;;;;;;5014093;28;20744;-80
2021/07/01 05:43:46;;;;;;;;;;;;;;;;;;5030849;28;20004;-79
2021/07/01 05:46:13;;;;;;;;;;;;;;;;;;5031122;28;19999;-79
2021/07/01 05:48:42;;;;;;;;;;;;;;;;;;5017920;28;19983;-79
2021/07/01 05:51:11;;;;;;;;;;;;;;;;;;5030463;28;20015;-79
2021/07/01 05:56:08;;;;;;;;;;;;;;;;;;5030104;28;20752;-79
2021/07/01 05:58:36;;;;;;;;;;;;;;;;;;5032676;28;19925;-79
2021/07/01 06:01:04;;;;;;;;;;;;;;;;;;5029177;28;20655;-79
2021/07/01 06:03:33;;;;;;;;;;;;;;;;;;5022518;28;20289;-79
2021/07/01 06:06:00;;;;;;;;;;;;;;;;;;5032291;28;19925;-79
2021/07/01 06:08:29;;;;;;;;;;;;;;;;;;5015143;28;19960;-80
2021/07/01 06:11:00;;;;;;;;;;;;;;;;;;5013377;28;19929;-79
2021/07/01 06:13:28;;;;;;;;;;;;;;;;;;5017485;28;19968;-79
2021/07/01 06:15:56;;;;;;;;;;;;;;;;;;5010298;28;19929;-79
2021/07/01 06:18:24;;;;;;;;;;;;;;;;;;5029734;28;19963;-79
2021/07/01 06:20:52;;;;;;;;;;;;;;;;;;5030078;28;19928;-79
2021/07/01 06:23:20;;;;;;;;;;;;;;;;;;5024974;28;19925;-79
2021/07/01 06:25:48;;;;;;;;;;;;;;;;;;5011385;28;19956;-79
2021/07/01 06:28:15;;;;;;;;;;;;;;;;;;5025835;28;20023;-79
2021/07/01 06:30:47;;;;;;;;;;;;;;;;;;5014151;28;19925;-79
2021/07/01 06:33:17;;;;;;;;;;;;;;;;;;5011022;28;20008;-80
2021/07/01 06:35:44;;;;;;;;;;;;;;;;;;5018886;28;20397;-79
2021/07/01 06:38:11;;;;;;;;;;;;;;;;;;5022139;28;19931;-79
2021/07/01 06:40:39;;;;;;;;;;;;;;;;;;5028449;28;19925;-79
2021/07/01 06:43:10;;;;;;;;;;;;;;;;;;5028043;28;20633;-79
2021/07/01 06:45:37;;;;;;;;;;;;;;;;;;5022781;28;19976;-79
2021/07/01 06:48:09;;;;;;;;;;;;;;;;;;5029432;28;19921;-79
2021/07/01 06:50:36;;;;;;;;;;;;;;;;;;5018836;28;20019;-79
2021/07/01 06:53:05;;;;;;;;;;;;;;;;;;5008155;28;20044;-79
2021/07/01 06:55:32;;;;;;;;;;;;;;;;;;5019394;28;20293;-79
2021/07/01 06:58:00;;;;;;;;;;;;;;;;;;5013475;28;20385;-78
2021/07/01 07:00:27;;;;;;;;;;;;;;;;;;5012217;28;20020;-78
2021/07/01 07:02:55;;;;;;;;;;;;;;;;;;5030494;28;19921;-78
2021/07/01 07:05:22;;;;;;;;;;;;;;;;;;5028830;28;20040;-78
2021/07/01 07:07:50;;;;;;;;;;;;;;;;;;5012877;28;19988;-79
2021/07/01 07:10:19;;;;;;;;;;;;;;;;;;5012917;28;19929;-78
2021/07/01 07:12:54;;;;;;;;;;;;;;;;;;5013108;28;19952;-78
2021/07/01 07:15:27;;;;;;;;;;;;;;;;;;5010097;28;20044;-79
2021/07/01 07:17:54;;;;;;;;;;;;;;;;;;5006524;28;20656;-79
2021/07/01 07:20:21;;;;;;;;;;;;;;;;;;5016915;28;19971;-79
2021/07/01 07:22:49;;;;;;;;;;;;;;;;;;5013549;28;20629;-79
2021/07/01 07:25:19;;;;;;;;;;;;;;;;;;5012588;28;19921;-79
2021/07/01 07:27:46;;;;;;;;;;;;;;;;;;5030064;28;20003;-78
2021/07/01 07:30:13;;;;;;;;;;;;;;;;;;5017381;28;19964;-78
2021/07/01 07:32:43;;;;;;;;;;;;;;;;;;5025848;28;19956;-79
2021/07/01 07:35:11;;;;;;;;;;;;;;;;;;5031633;28;19956;-79
2021/07/01 07:37:38;;;;;;;;;;;;;;;;;;5014708;28;19929;-79
2021/07/01 07:40:06;;;;;;;;;;;;;;;;;;5015117;28;19928;-79
2021/07/01 07:42:34;;;;;;;;;;;;;;;;;;5025447;28;19932;-79
2021/07/01 07:45:02;;;;;;;;;;;;;;;;;;5027046;28;19964;-79
2021/07/01 07:47:29;;;;;;;;;;;;;;;;;;5031276;28;20374;-79
2021/07/01 07:49:57;;;;;;;;;;;;;;;;;;5009410;28;20472;-79
2021/07/01 07:52:24;;;;;;;;;;;;;;;;;;5027619;28;19987;-79
2021/07/01 07:54:53;;;;;;;;;;;;;;;;;;5013053;28;19921;-79
2021/07/01 07:57:20;;;;;;;;;;;;;;;;;;5030089;28;19979;-79
2021/07/01 07:59:48;;;;;;;;;;;;;;;;;;5015133;28;19931;-79
2021/07/01 08:02:15;;;;;;;;;;;;;;;;;;5030412;28;19925;-79
2021/07/01 08:04:43;;;;;;;;;;;;;;;;;;5018396;28;19948;-79
2021/07/01 08:07:10;;;;;;;;;;;;;;;;;;5026512;28;20016;-79
2021/07/01 08:09:37;;;;;;;;;;;;;;;;;;5031348;28;19971;-79
2021/07/01 08:12:04;;;;;;;;;;;;;;;;;;5013362;28;19967;-79
2021/07/01 08:14:31;;;;;;;;;;;;;;;;;;5030393;28;19936;-79
2021/07/01 08:16:59;;;;;;;;;;;;;;;;;;5032080;28;19972;-79
2021/07/01 08:19:26;;;;;;;;;;;;;;;;;;5034686;28;19971;-79
2021/07/01 08:21:55;;;;;;;;;;;;;;;;;;5020873;28;19964;-79
2021/07/01 08:24:22;;;;;;;;;;;;;;;;;;5030392;28;20011;-79
2021/07/01 08:26:49;;;;;;;;;;;;;;;;;;5014520;28;20011;-79
2021/07/01 08:29:16;;;;;;;;;;;;;;;;;;5014833;28;20032;-79
2021/07/01 08:31:46;;;;;;;;;;;;;;;;;;5028691;28;19932;-79
2021/07/01 08:34:13;;;;;;;;;;;;;;;;;;5012467;28;20010;-78
2021/07/01 08:36:40;;;;;;;;;;;;;;;;;;5018701;28;20019;-79
2021/07/01 08:39:08;;;;;;;;;;;;;;;;;;5021733;28;19955;-79
2021/07/01 08:41:36;;;;;;;;;;;;;;;;;;5024638;28;19932;-79
2021/07/01 08:44:06;;;;;;;;;;;;;;;;;;5010393;28;19932;-79
2021/07/01 08:46:34;;;;;;;;;;;;;;;;;;5011084;28;19928;-79
2021/07/01 08:49:01;;;;;;;;;;;;;;;;;;5028149;28;19929;-79
2021/07/01 08:51:29;;;;;;;;;;;;;;;;;;5026396;28;19925;-78
2021/07/01 08:53:56;;;;;;;;;;;;;;;;;;5028965;28;19967;-78
2021/07/01 08:56:24;;;;;;;;;;;;;;;;;;5015575;28;19924;-79
2021/07/01 08:58:53;;;;;;;;;;;;;;;;;;5020220;28;20024;-79
2021/07/01 09:01:22;;;;;;;;;;;;;;;;;;5031324;28;20011;-80
2021/07/01 09:03:50;;;;;;;;;;;;;;;;;;5025696;28;19926;-79
2021/07/01 09:06:19;;;;;;;;;;;;;;;;;;5011999;28;19925;-79
2021/07/01 09:08:49;;;;;;;;;;;;;;;;;;5049427;28;20388;-79
2021/07/01 09:11:18;;;;;;;;;;;;;;;;;;5011718;28;20012;-79
2021/07/01 09:13:45;;;;;;;;;;;;;;;;;;5032666;28;20019;-79
2021/07/01 09:16:12;;;;;;;;;;;;;;;;;;5014771;28;20389;-80
2021/07/01 09:18:41;;;;;;;;;;;;;;;;;;5018246;28;19975;-79
2021/07/01 09:21:10;;;;;;;;;;;;;;;;;;5031379;28;19931;-79
2021/07/01 09:23:38;;;;;;;;;;;;;;;;;;5049310;28;19964;-79
2021/07/01 09:26:07;;;;;;;;;;;;;;;;;;5012361;28;19922;-79
2021/07/01 09:28:34;;;;;;;;;;;;;;;;;;5032851;28;19924;-79
2021/07/01 09:31:02;;;;;;;;;;;;;;;;;;5029715;28;19928;-80
2021/07/01 09:33:39;;;;;;;;;;;;;;;;;;5012972;28;19925;-79
2021/07/01 09:36:08;;;;;;;;;;;;;;;;;;5012857;28;20019;-79
2021/07/01 09:38:38;;;;;;;;;;;;;;;;;;5017875;28;19948;-80
2021/07/01 09:41:06;;;;;;;;;;;;;;;;;;4994166;28;19922;-80
2021/07/01 09:43:34;;;;;;;;;;;;;;;;;;5020510;28;19964;-80
2021/07/01 09:46:02;;;;;;;;;;;;;;;;;;5015197;28;19929;-80
2021/07/01 09:48:32;;;;;;;;;;;;;;;;;;5032258;28;20004;-81
2021/07/01 09:51:00;;;;;;;;;;;;;;;;;;5013354;28;19952;-80
2021/07/01 09:53:28;;;;;;;;;;;;;;;;;;5012299;28;19921;-81
2021/07/01 09:55:55;;;;;;;;;;;;;;;;;;5043362;28;19928;-80
2021/07/01 09:58:23;;;;;;;;;;;;;;;;;;5030107;28;19921;-80
2021/07/01 10:00:52;;;;;;;;;;;;;;;;;;5029604;28;19978;-79
2021/07/01 10:03:19;;;;;;;;;;;;;;;;;;5004366;28;19991;-81
2021/07/01 10:05:47;;;;;;;;;;;;;;;;;;5036208;28;19921;-80
2021/07/01 10:08:14;;;;;;;;;;;;;;;;;;5031234;28;19931;-80
2021/07/01 10:10:41;;;;;;;;;;;;;;;;;;5038362;28;19963;-80
2021/07/01 10:13:17;;;;;;;;;;;;;;;;;;5017062;28;20663;-80
2021/07/01 10:15:46;;;;;;;;;;;;;;;;;;5008559;28;19948;-80
2021/07/01 10:18:14;;;;;;;;;;;;;;;;;;5031835;28;19921;-81
2021/07/01 10:20:54;;;;;;;;;;;;;;;;;;5018094;28;19928;-80
2021/07/01 10:23:21;;;;;;;;;;;;;;;;;;5039461;28;19956;-80
2021/07/01 10:25:48;;;;;;;;;;;;;;;;;;5014878;28;19965;-80
2021/07/01 10:28:17;;;;;;;;;;;;;;;;;;5016459;28;19921;-80
2021/07/01 10:30:45;;;;;;;;;;;;;;;;;;5016807;28;20385;-80
2021/07/01 10:33:13;;;;;;;;;;;;;;;;;;5034049;28;20012;-80
2021/07/01 10:35:41;;;;;;;;;;;;;;;;;;5001186;28;19925;-80
2021/07/01 10:38:08;;;;;;;;;;;;;;;;;;5034139;28;19975;-80
2021/07/01 10:40:36;;;;;;;;;;;;;;;;;;5035066;28;20354;-79
2021/07/01 10:43:03;;;;;;;;;;;;;;;;;;5034831;28;20031;-80
2021/07/01 10:45:30;;;;;;;;;;;;;;;;;;5010590;28;20016;-81
2021/07/01 10:47:58;;;;;;;;;;;;;;;;;;5035501;28;19921;-81
2021/07/01 10:50:28;;;;;;;;;;;;;;;;;;5035588;28;19924;-81
2021/07/01 10:53:01;;;;;;;;;;;;;;;;;;5039160;28;19960;-80
2021/07/01 10:55:29;;;;;;;;;;;;;;;;;;5019527;28;20417;-80
2021/07/01 10:58:03;;;;;;;;;;;;;;;;;;5017375;28;19924;-80
2021/07/01 11:00:31;;;;;;;;;;;;;;;;;;5017360;28;19987;-80
2021/07/01 11:03:20;;;;;;;;;;;;;;;;;;5013683;28;20419;-79
2021/07/01 11:05:47;;;;;;;;;;;;;;;;;;5031694;28;19928;-79
2021/07/01 11:08:15;;;;;;;;;;;;;;;;;;5033537;28;19921;-80
2021/07/01 11:10:52;;;;;;;;;;;;;;;;;;5017940;28;19921;-80
2021/07/01 11:13:23;;;;;;;;;;;;;;;;;;5015765;28;19968;-80
2021/07/01 11:15:51;;;;;;;;;;;;;;;;;;5017624;28;19924;-80
2021/07/01 11:18:18;;;;;;;;;;;;;;;;;;5031010;28;19925;-80
2021/07/01 11:20:46;;;;;;;;;;;;;;;;;;5033245;28;20464;-80
2021/07/01 11:23:13;;;;;;;;;;;;;;;;;;5033240;28;19967;-79
2021/07/01 11:25:43;;;;;;;;;;;;;;;;;;5014240;28;19982;-79
2021/07/01 11:28:10;;;;;;;;;;;;;;;;;;5031218;28;19972;-79
2021/07/01 11:30:38;;;;;;;;;;;;;;;;;;5006878;28;20004;-79
2021/07/01 11:33:05;;;;;;;;;;;;;;;;;;5016750;28;19932;-78
2021/07/01 11:35:32;;;;;;;;;;;;;;;;;;5026257;28;19927;-78
2021/07/01 11:38:00;;;;;;;;;;;;;;;;;;5011681;28;19929;-79
2021/07/01 11:40:28;;;;;;;;;;;;;;;;;;5016548;28;20012;-79
2021/07/01 11:42:55;;;;;;;;;;;;;;;;;;5028853;28;19925;-79
2021/07/01 11:45:22;;;;;;;;;;;;;;;;;;5029801;28;19921;-79
2021/07/01 11:47:49;;;;;;;;;;;;;;;;;;5028883;28;19973;-79
2021/07/01 11:50:17;;;;;;;;;;;;;;;;;;5016678;28;20570;-79
2021/07/01 11:52:47;;;;;;;;;;;;;;;;;;5022969;28;19952;-79
2021/07/01 11:55:14;;;;;;;;;;;;;;;;;;5016127;28;20040;-78
2021/07/01 11:57:42;;;;;;;;;;;;;;;;;;5026904;28;19925;-79
2021/07/01 12:00:10;;;;;;;;;;;;;;;;;;5009054;28;19925;-79
2021/07/01 12:02:37;;;;;;;;;;;;;;;;;;5029383;28;20433;-79
2021/07/01 12:05:04;;;;;;;;;;;;;;;;;;4949679;28;2276391;-79
2021/07/01 12:07:33;;;;;;;;;;;;;;;;;;5024871;28;20396;-79
2021/07/01 12:10:04;;;;;;;;;;;;;;;;;;5012990;28;20019;-78
2021/07/01 12:12:33;;;;;;;;;;;;;;;;;;5028975;28;19925;-78
2021/07/01 12:15:02;;;;;;;;;;;;;;;;;;5011639;28;19920;-79
2021/07/01 12:17:29;;;;;;;;;;;;;;;;;;5028283;28;19952;-78
2021/07/01 12:19:56;;;;;;;;;;;;;;;;;;5025530;28;19999;-78
2021/07/01 12:22:26;;;;;;;;;;;;;;;;;;5011976;28;19932;-78
2021/07/01 12:24:53;;;;;;;;;;;;;;;;;;5029828;28;19994;-79
2021/07/01 12:27:21;;;;;;;;;;;;;;;;;;5027247;28;20006;-79
2021/07/01 12:29:48;;;;;;;;;;;;;;;;;;5028178;28;20007;-78
2021/07/01 12:32:17;;;;;;;;;;;;;;;;;;5010796;28;19944;-78
2021/07/01 12:34:44;;;;;;;;;;;;;;;;;;5024731;28;20380;-78
2021/07/01 12:37:13;;;;;;;;;;;;;;;;;;5015053;28;20020;-79
2021/07/01 12:39:44;;;;;;;;;;;;;;;;;;5020908;28;19929;-79
2021/07/01 12:42:12;;;;;;;;;;;;;;;;;;5018601;28;20032;-79
2021/07/01 12:44:41;;;;;;;;;;;;;;;;;;5030264;28;19952;-79
2021/07/01 12:47:11;;;;;;;;;;;;;;;;;;5012047;28;19924;-79
2021/07/01 12:49:40;;;;;;;;;;;;;;;;;;5029190;28;19924;-78
2021/07/01 12:52:08;;;;;;;;;;;;;;;;;;5026796;28;19921;-78
2021/07/01 12:54:35;;;;;;;;;;;;;;;;;;5027544;28;19975;-79
2021/07/01 12:57:03;;;;;;;;;;;;;;;;;;5028681;28;20413;-79
2021/07/01 12:59:30;;;;;;;;;;;;;;;;;;5028157;28;19928;-80
2021/07/01 13:01:57;;;;;;;;;;;;;;;;;;5010767;28;19921;-80
2021/07/01 13:04:28;;;;;;;;;;;;;;;;;;5011884;28;20695;-79
2021/07/01 13:06:55;;;;;;;;;;;;;;;;;;5028978;28;20012;-80
2021/07/01 13:09:22;;;;;;;;;;;;;;;;;;5029554;28;19951;-79
2021/07/01 13:11:53;;;;;;;;;;;;;;;;;;5029396;28;20039;-80
2021/07/01 13:14:22;;;;;;;;;;;;;;;;;;5028405;28;19925;-79
2021/07/01 13:16:51;;;;;;;;;;;;;;;;;;5028226;28;19932;-80
2021/07/01 13:19:19;;;;;;;;;;;;;;;;;;5029014;28;19925;-79
2021/07/01 13:21:46;;;;;;;;;;;;;;;;;;5028803;28;20027;-79
2021/07/01 13:24:14;;;;;;;;;;;;;;;;;;5029052;28;19925;-79
2021/07/01 13:26:41;;;;;;;;;;;;;;;;;;5027432;28;20059;-77
2021/07/01 13:29:08;;;;;;;;;;;;;;;;;;5025918;28;20648;-77
2021/07/01 13:31:35;;;;;;;;;;;;;;;;;;5024326;28;20100;-77
2021/07/01 13:34:02;;;;;;;;;;;;;;;;;;5025749;28;20004;-77
2021/07/01 13:36:29;;;;;;;;;;;;;;;;;;5025646;28;19925;-77
2021/07/01 13:38:56;;;;;;;;;;;;;;;;;;5008515;28;20015;-78
2021/07/01 13:41:23;;;;;;;;;;;;;;;;;;5029220;28;19976;-78
2021/07/01 13:43:50;;;;;;;;;;;;;;;;;;5026164;28;19972;-77
2021/07/01 13:46:17;;;;;;;;;;;;;;;;;;5009383;28;19927;-77
2021/07/01 13:48:46;;;;;;;;;;;;;;;;;;5022146;28;19941;-80
2021/07/01 13:51:15;;;;;;;;;;;;;;;;;;5018621;28;20697;-81
2021/07/01 13:53:44;;;;;;;;;;;;;;;;;;5012790;28;20011;-80
2021/07/01 13:56:13;;;;;;;;;;;;;;;;;;5031314;28;20370;-80
2021/07/01 13:58:43;;;;;;;;;;;;;;;;;;5015360;28;19976;-80
2021/07/01 14:01:11;;;;;;;;;;;;;;;;;;5025798;28;19968;-80
2021/07/01 14:03:39;;;;;;;;;;;;;;;;;;5023041;28;20354;-80
2021/07/01 14:06:07;;;;;;;;;;;;;;;;;;5026174;28;19965;-81
2021/07/01 14:08:34;;;;;;;;;;;;;;;;;;5022730;28;19931;-81
2021/07/01 14:11:06;;;;;;;;;;;;;;;;;;5025714;28;19928;-82
2021/07/01 14:13:33;;;;;;;;;;;;;;;;;;5032705;28;19921;-81
2021/07/01 14:16:00;;;;;;;;;;;;;;;;;;5014264;28;20015;-83
2021/07/01 14:18:31;;;;;;;;;;;;;;;;;;5020422;28;19924;-83
2021/07/01 14:20:58;;;;;;;;;;;;;;;;;;5018106;28;19920;-86
2021/07/01 14:23:26;;;;;;;;;;;;;;;;;;5016031;28;20008;-87
2021/07/01 14:25:55;;;;;;;;;;;;;;;;;;5032605;28;19975;-85
2021/07/01 14:28:27;;;;;;;;;;;;;;;;;;5036624;28;19921;-87
2021/07/01 14:30:57;;;;;;;;;;;;;;;;;;5022443;28;20012;-84
2021/07/01 14:33:24;;;;;;;;;;;;;;;;;;5031068;28;19979;-84
2021/07/01 14:35:51;;;;;;;;;;;;;;;;;;5032846;28;20011;-83
2021/07/01 14:38:18;;;;;;;;;;;;;;;;;;5034052;28;20019;-84
2021/07/01 14:40:46;;;;;;;;;;;;;;;;;;5030694;28;20479;-82
2021/07/01 14:43:19;;;;;;;;;;;;;;;;;;5033620;28;19964;-83
2021/07/01 14:45:46;;;;;;;;;;;;;;;;;;5037804;28;20460;-84
2021/07/01 14:48:18;;;;;;;;;;;;;;;;;;5031692;28;19960;-84
2021/07/01 14:50:47;;;;;;;;;;;;;;;;;;5032756;28;20029;-82
2021/07/01 14:53:14;;;;;;;;;;;;;;;;;;5031757;28;20365;-83
2021/07/01 14:55:42;;;;;;;;;;;;;;;;;;5025308;28;19975;-81
2021/07/01 14:58:10;;;;;;;;;;;;;;;;;;5023771;28;20431;-81
2021/07/01 15:00:38;;;;;;;;;;;;;;;;;;5028760;28;20007;-80
2021/07/01 15:03:05;;;;;;;;;;;;;;;;;;5027917;28;19929;-81
2021/07/01 15:05:32;;;;;;;;;;;;;;;;;;5027493;28;19968;-82
2021/07/01 15:08:00;;;;;;;;;;;;;;;;;;5014432;28;20036;-83
2021/07/01 15:10:27;;;;;;;;;;;;;;;;;;5029609;28;20277;-81
2021/07/01 15:13:00;;;;;;;;;;;;;;;;;;5032349;28;19921;-80
2021/07/01 15:15:29;;;;;;;;;;;;;;;;;;5019910;28;19979;-78
2021/07/01 15:17:56;;;;;;;;;;;;;;;;;;5025800;28;19949;-79
2021/07/01 15:20:23;;;;;;;;;;;;;;;;;;5026239;28;19933;-78
2021/07/01 15:22:50;;;;;;;;;;;;;;;;;;5026882;28;19964;-77
2021/07/01 15:25:18;;;;;;;;;;;;;;;;;;5019595;28;20011;-78
2021/07/01 15:27:45;;;;;;;;;;;;;;;;;;5029190;28;19960;-78
2021/07/01 15:30:12;;;;;;;;;;;;;;;;;;5019910;28;20025;-77
2021/07/01 15:32:40;;;;;;;;;;;;;;;;;;5020607;28;21076;-77
2021/07/01 15:35:08;;;;;;;;;;;;;;;;;;5029101;28;19927;-77
2021/07/01 15:37:35;;;;;;;;;;;;;;;;;;5026782;28;19960;-77
2021/07/01 15:40:03;;;;;;;;;;;;;;;;;;5022363;28;19925;-77
2021/07/01 15:42:30;;;;;;;;;;;;;;;;;;5005064;28;20019;-77
2021/07/01 15:44:57;;;;;;;;;;;;;;;;;;5018377;28;19980;-77
2021/07/01 15:47:24;;;;;;;;;;;;;;;;;;5023222;28;20032;-76
2021/07/01 15:49:51;;;;;;;;;;;;;;;;;;5018823;28;19928;-77
2021/07/01 15:52:18;;;;;;;;;;;;;;;;;;5021138;28;19934;-77
2021/07/01 15:54:45;;;;;;;;;;;;;;;;;;5020853;28;19979;-77
2021/07/01 15:57:12;;;;;;;;;;;;;;;;;;5016075;28;20285;-76
2021/07/01 15:59:40;;;;;;;;;;;;;;;;;;5021594;28;19925;-77
2021/07/01 16:02:07;;;;;;;;;;;;;;;;;;5018987;28;19936;-77
2021/07/01 16:04:34;;;;;;;;;;;;;;;;;;5019458;28;19998;-78
2021/07/01 16:07:01;;;;;;;;;;;;;;;;;;5018516;28;19928;-78
2021/07/01 16:09:28;;;;;;;;;;;;;;;;;;5013434;28;20019;-80
2021/07/01 16:11:57;;;;;;;;;;;;;;;;;;5025586;28;19931;-80
2021/07/01 16:14:25;;;;;;;;;;;;;;;;;;5019568;28;19972;-79
2021/07/01 16:16:52;;;;;;;;;;;;;;;;;;5024151;28;19925;-78
2021/07/01 16:19:19;;;;;;;;;;;;;;;;;;5015996;28;19926;-80
2021/07/01 16:21:47;;;;;;;;;;;;;;;;;;5022533;28;20016;-77
2021/07/01 16:24:14;;;;;;;;;;;;;;;;;;5016597;28;20012;-81
2021/07/01 16:26:52;;;;;;;;;;;;;;;;;;5022397;28;19929;-79
2021/07/01 16:29:21;;;;;;;;;;;;;;;;;;5018352;28;20028;-79
2021/07/01 16:31:49;;;;;;;;;;;;;;;;;;5022875;28;19957;-79
2021/07/01 16:37:26;;;;;;;;;;;;;;;;;;4956131;23;20310;-78
2021/07/01 16:39:53;;;;;;;;;;;;;;;;;;4941967;28;19995;-77
2021/07/01 16:42:20;;;;;;;;;;;;;;;;;;5004233;28;20009;-79
2021/07/01 16:44:48;;;;;;;;;;;;;;;;;;4944757;28;20294;-79
2021/07/01 16:47:15;;;;;;;;;;;;;;;;;;5007131;28;19966;-78
2021/07/01 16:49:42;;;;;;;;;;;;;;;;;;5005970;28;20529;-77
2021/07/01 16:52:09;;;;;;;;;;;;;;;;;;4954658;28;19931;-80
2021/07/01 16:54:36;;;;;;;;;;;;;;;;;;5030625;28;20081;-81
2021/07/01 16:57:03;;;;;;;;;;;;;;;;;;4993431;28;19969;-76